Beale Air Force Base
KBAB : now visible

Airfield :











YOU CAN JOIN US ON...

 
LOGIN :

Register | Disclaimer

   EN    FR    IT 

 









Legend :    VFR   Marginal VFR   IFR   Intensive IFR   Very Intensive IFR
Visi :
Ceiling :
>= 8 km
>= 3000ft
5 to 8 km
1000 to 3000 ft
1500m to 5 km
500 to 1000 ft
800 to 1500m
200 to 500 ft
< 800m
< 200 ft
Symbols :   Thunderstorms  Fog  Heavy snow  Heavy precipitations  Wind > 20 kt







- Airport Elevation : 113 ft


KBAB - Beale Air Force Base

CURRENT METAR :
  • 250958Z 00000KT 10SM CLR 18/13 A2973 RMK AO2A SLP070 T01760125 $

EXPIRED METARs :
  • 250858Z 35003KT 10SM CLR 20/13 A2973 RMK AO2A SLP070 T02000130 53001 $
  • 250758Z 17004KT 8SM CLR 21/14 A2972 RMK AO2A SLP066 T02140136 403470166 $

TAF TAF KBAB
Valid from the 25 at 03:00 until the 26 at 09:00 UTC


250301Z 2503/2609 VRB06KT 9999 FEW180 QNH2967INS
BECMG 2517/2518 19009KT 9999 FEW250 QNH2968INS TX34/2523Z TN16/2513Z
KZOA FIR / North America



MET'MAP, your aeronautical weather chart ! - Copyright ORBIFLY December 2007 - Disclaimer

ORBIFLY MET'MAP TEAM :

Programming & Development : Alexandra Zaïnal
Concept & Development : Baudouin d'Aumeries
Co-Development & Prog : Marc-Olivier Méhu
Technical & hardware support : Manuel Goepfert

Contact : metmap@orbifly.com




SOURCES & CREDITS :

   NOAA       Earth
Advisory